sensor_id;sensor_type;location;lat;lon;timestamp;P1;durP1;ratioP1;P2;durP2;ratioP2
58756;SDS011;44527;47.460;19.016;2022-12-18T00:02:48;38.83;;;14.15;;
58756;SDS011;44527;47.460;19.016;2022-12-18T00:05:50;43.28;;;16.05;;
58756;SDS011;44527;47.460;19.016;2022-12-18T00:08:54;48.03;;;16.20;;
58756;SDS011;44527;47.460;19.016;2022-12-18T00:11:58;48.72;;;15.77;;
58756;SDS011;44527;47.460;19.016;2022-12-18T00:15:00;41.00;;;16.15;;
58756;SDS011;44527;47.460;19.016;2022-12-18T00:18:02;46.50;;;16.02;;
58756;SDS011;44527;47.460;19.016;2022-12-18T00:21:06;40.92;;;15.38;;
58756;SDS011;44527;47.460;19.016;2022-12-18T00:24:10;40.28;;;15.27;;
58756;SDS011;44527;47.460;19.016;2022-12-18T00:27:12;45.22;;;14.30;;
58756;SDS011;44527;47.460;19.016;2022-12-18T00:30:15;41.72;;;15.80;;
58756;SDS011;44527;47.460;19.016;2022-12-18T00:33:17;45.55;;;15.57;;
58756;SDS011;44527;47.460;19.016;2022-12-18T00:36:21;42.03;;;15.05;;
58756;SDS011;44527;47.460;19.016;2022-12-18T00:39:34;33.50;;;14.00;;
58756;SDS011;44527;47.460;19.016;2022-12-18T00:42:36;37.47;;;14.05;;
58756;SDS011;44527;47.460;19.016;2022-12-18T00:45:57;46.13;;;15.40;;
58756;SDS011;44527;47.460;19.016;2022-12-18T00:49:00;44.90;;;16.02;;
58756;SDS011;44527;47.460;19.016;2022-12-18T00:52:02;40.58;;;15.68;;
58756;SDS011;44527;47.460;19.016;2022-12-18T00:55:04;40.33;;;15.18;;
58756;SDS011;44527;47.460;19.016;2022-12-18T00:58:08;43.97;;;14.93;;
58756;SDS011;44527;47.460;19.016;2022-12-18T01:01:11;43.58;;;16.30;;
58756;SDS011;44527;47.460;19.016;2022-12-18T01:04:13;34.20;;;12.63;;
58756;SDS011;44527;47.460;19.016;2022-12-18T01:07:19;48.17;;;16.67;;
58756;SDS011;44527;47.460;19.016;2022-12-18T01:10:21;46.03;;;16.02;;
58756;SDS011;44527;47.460;19.016;2022-12-18T01:13:25;42.35;;;15.38;;
58756;SDS011;44527;47.460;19.016;2022-12-18T01:16:27;40.33;;;13.77;;
58756;SDS011;44527;47.460;19.016;2022-12-18T01:19:31;46.83;;;14.45;;
58756;SDS011;44527;47.460;19.016;2022-12-18T01:22:33;38.17;;;14.30;;
58756;SDS011;44527;47.460;19.016;2022-12-18T01:25:36;40.30;;;15.63;;
58756;SDS011;44527;47.460;19.016;2022-12-18T01:28:38;36.45;;;14.60;;
58756;SDS011;44527;47.460;19.016;2022-12-18T01:31:42;40.05;;;14.87;;
58756;SDS011;44527;47.460;19.016;2022-12-18T01:34:44;57.25;;;18.27;;
58756;SDS011;44527;47.460;19.016;2022-12-18T01:37:47;44.33;;;15.65;;
58756;SDS011;44527;47.460;19.016;2022-12-18T01:40:49;41.08;;;16.33;;
58756;SDS011;44527;47.460;19.016;2022-12-18T01:46:59;42.95;;;15.50;;
58756;SDS011;44527;47.460;19.016;2022-12-18T01:50:04;43.95;;;14.98;;
58756;SDS011;44527;47.460;19.016;2022-12-18T01:53:17;49.75;;;15.55;;
58756;SDS011;44527;47.460;19.016;2022-12-18T01:56:22;41.37;;;14.00;;
58756;SDS011;44527;47.460;19.016;2022-12-18T01:59:25;45.55;;;16.12;;
58756;SDS011;44527;47.460;19.016;2022-12-18T02:02:28;49.38;;;15.55;;
58756;SDS011;44527;47.460;19.016;2022-12-18T02:09:07;41.22;;;14.27;;
58756;SDS011;44527;47.460;19.016;2022-12-18T02:12:18;38.42;;;13.77;;
58756;SDS011;44527;47.460;19.016;2022-12-18T02:18:56;40.15;;;15.48;;
58756;SDS011;44527;47.460;19.016;2022-12-18T02:22:06;45.97;;;15.05;;
58756;SDS011;44527;47.460;19.016;2022-12-18T02:28:30;44.35;;;15.48;;
58756;SDS011;44527;47.460;19.016;2022-12-18T02:31:36;38.03;;;14.00;;
58756;SDS011;44527;47.460;19.016;2022-12-18T02:34:44;44.92;;;15.93;;
58756;SDS011;44527;47.460;19.016;2022-12-18T02:37:48;40.22;;;14.23;;
58756;SDS011;44527;47.460;19.016;2022-12-18T02:40:51;42.92;;;15.57;;
58756;SDS011;44527;47.460;19.016;2022-12-18T02:43:59;37.38;;;13.65;;
58756;SDS011;44527;47.460;19.016;2022-12-18T02:47:05;43.47;;;16.65;;
58756;SDS011;44527;47.460;19.016;2022-12-18T02:50:10;45.83;;;15.10;;
58756;SDS011;44527;47.460;19.016;2022-12-18T02:57:02;49.30;;;16.25;;
58756;SDS011;44527;47.460;19.016;2022-12-18T03:00:16;41.22;;;15.88;;
58756;SDS011;44527;47.460;19.016;2022-12-18T03:06:51;42.17;;;16.77;;
58756;SDS011;44527;47.460;19.016;2022-12-18T03:09:58;51.05;;;16.37;;
58756;SDS011;44527;47.460;19.016;2022-12-18T03:13:04;41.33;;;14.23;;
58756;SDS011;44527;47.460;19.016;2022-12-18T03:16:14;42.85;;;14.68;;
58756;SDS011;44527;47.460;19.016;2022-12-18T03:19:21;44.33;;;15.57;;
58756;SDS011;44527;47.460;19.016;2022-12-18T03:22:26;48.30;;;16.15;;
58756;SDS011;44527;47.460;19.016;2022-12-18T03:25:31;41.20;;;14.00;;
58756;SDS011;44527;47.460;19.016;2022-12-18T03:28:36;49.80;;;16.15;;
58756;SDS011;44527;47.460;19.016;2022-12-18T03:31:48;49.05;;;15.50;;
58756;SDS011;44527;47.460;19.016;2022-12-18T03:34:57;37.28;;;14.45;;
58756;SDS011;44527;47.460;19.016;2022-12-18T03:38:03;40.92;;;14.25;;
58756;SDS011;44527;47.460;19.016;2022-12-18T03:44:35;43.58;;;15.50;;
58756;SDS011;44527;47.460;19.016;2022-12-18T03:51:07;39.35;;;13.82;;
58756;SDS011;44527;47.460;19.016;2022-12-18T03:54:17;50.25;;;15.38;;
58756;SDS011;44527;47.460;19.016;2022-12-18T03:57:25;49.33;;;15.27;;
58756;SDS011;44527;47.460;19.016;2022-12-18T04:00:31;41.28;;;14.77;;
58756;SDS011;44527;47.460;19.016;2022-12-18T04:03:35;45.70;;;16.08;;
58756;SDS011;44527;47.460;19.016;2022-12-18T04:06:40;41.33;;;14.95;;
58756;SDS011;44527;47.460;19.016;2022-12-18T04:09:46;41.00;;;14.63;;
58756;SDS011;44527;47.460;19.016;2022-12-18T04:12:55;40.60;;;15.63;;
58756;SDS011;44527;47.460;19.016;2022-12-18T04:15:59;47.38;;;14.48;;
58756;SDS011;44527;47.460;19.016;2022-12-18T04:19:01;34.20;;;14.13;;
58756;SDS011;44527;47.460;19.016;2022-12-18T04:22:05;46.03;;;14.63;;
58756;SDS011;44527;47.460;19.016;2022-12-18T04:25:08;42.97;;;15.20;;
58756;SDS011;44527;47.460;19.016;2022-12-18T04:28:11;36.97;;;13.73;;
58756;SDS011;44527;47.460;19.016;2022-12-18T04:31:13;55.05;;;16.12;;
58756;SDS011;44527;47.460;19.016;2022-12-18T04:34:16;38.65;;;15.73;;
58756;SDS011;44527;47.460;19.016;2022-12-18T04:37:19;43.58;;;14.60;;
58756;SDS011;44527;47.460;19.016;2022-12-18T04:40:23;42.97;;;15.13;;
58756;SDS011;44527;47.460;19.016;2022-12-18T04:43:25;51.15;;;16.65;;
58756;SDS011;44527;47.460;19.016;2022-12-18T04:46:28;45.08;;;14.75;;
58756;SDS011;44527;47.460;19.016;2022-12-18T04:49:30;46.13;;;15.20;;
58756;SDS011;44527;47.460;19.016;2022-12-18T04:52:33;38.13;;;14.30;;
58756;SDS011;44527;47.460;19.016;2022-12-18T04:55:35;39.72;;;13.95;;
58756;SDS011;44527;47.460;19.016;2022-12-18T04:58:39;46.90;;;15.00;;
58756;SDS011;44527;47.460;19.016;2022-12-18T05:01:42;39.30;;;13.68;;
58756;SDS011;44527;47.460;19.016;2022-12-18T05:04:45;41.33;;;15.60;;
58756;SDS011;44527;47.460;19.016;2022-12-18T05:07:47;40.58;;;14.18;;
58756;SDS011;44527;47.460;19.016;2022-12-18T05:10:57;44.63;;;15.30;;
58756;SDS011;44527;47.460;19.016;2022-12-18T05:14:01;41.08;;;17.15;;
58756;SDS011;44527;47.460;19.016;2022-12-18T05:17:03;43.83;;;15.10;;
58756;SDS011;44527;47.460;19.016;2022-12-18T05:20:05;39.58;;;15.50;;
58756;SDS011;44527;47.460;19.016;2022-12-18T05:23:08;39.72;;;14.27;;
58756;SDS011;44527;47.460;19.016;2022-12-18T05:26:12;39.75;;;14.05;;
58756;SDS011;44527;47.460;19.016;2022-12-18T05:29:17;48.87;;;17.02;;
58756;SDS011;44527;47.460;19.016;2022-12-18T05:32:19;34.65;;;14.27;;
58756;SDS011;44527;47.460;19.016;2022-12-18T05:35:22;51.13;;;15.85;;
58756;SDS011;44527;47.460;19.016;2022-12-18T05:38:25;45.70;;;16.30;;
58756;SDS011;44527;47.460;19.016;2022-12-18T05:41:28;48.17;;;17.20;;
58756;SDS011;44527;47.460;19.016;2022-12-18T05:44:30;50.67;;;16.40;;
58756;SDS011;44527;47.460;19.016;2022-12-18T05:47:33;43.58;;;13.90;;
58756;SDS011;44527;47.460;19.016;2022-12-18T05:50:36;40.22;;;14.63;;
58756;SDS011;44527;47.460;19.016;2022-12-18T05:53:39;45.38;;;17.17;;
58756;SDS011;44527;47.460;19.016;2022-12-18T05:56:41;37.15;;;14.15;;
58756;SDS011;44527;47.460;19.016;2022-12-18T05:59:49;37.20;;;15.38;;
58756;SDS011;44527;47.460;19.016;2022-12-18T06:02:52;44.63;;;16.85;;
58756;SDS011;44527;47.460;19.016;2022-12-18T06:05:54;45.40;;;15.48;;
58756;SDS011;44527;47.460;19.016;2022-12-18T06:08:56;49.53;;;15.68;;
58756;SDS011;44527;47.460;19.016;2022-12-18T06:12:02;45.92;;;16.17;;
58756;SDS011;44527;47.460;19.016;2022-12-18T06:15:04;42.60;;;17.33;;
58756;SDS011;44527;47.460;19.016;2022-12-18T06:18:07;39.67;;;15.82;;
58756;SDS011;44527;47.460;19.016;2022-12-18T06:21:10;44.22;;;16.08;;
58756;SDS011;44527;47.460;19.016;2022-12-18T06:24:12;38.22;;;14.30;;
58756;SDS011;44527;47.460;19.016;2022-12-18T06:27:14;51.42;;;15.30;;
58756;SDS011;44527;47.460;19.016;2022-12-18T06:30:17;44.63;;;14.57;;
58756;SDS011;44527;47.460;19.016;2022-12-18T06:33:19;42.62;;;15.65;;
58756;SDS011;44527;47.460;19.016;2022-12-18T06:36:21;35.28;;;14.63;;
58756;SDS011;44527;47.460;19.016;2022-12-18T06:39:24;38.55;;;15.25;;
58756;SDS011;44527;47.460;19.016;2022-12-18T06:42:28;45.97;;;16.15;;
58756;SDS011;44527;47.460;19.016;2022-12-18T06:45:30;43.00;;;15.50;;
58756;SDS011;44527;47.460;19.016;2022-12-18T06:48:32;45.22;;;16.25;;
58756;SDS011;44527;47.460;19.016;2022-12-18T06:51:35;46.85;;;16.55;;
58756;SDS011;44527;47.460;19.016;2022-12-18T06:54:37;37.60;;;14.05;;
58756;SDS011;44527;47.460;19.016;2022-12-18T06:57:40;38.03;;;13.02;;
58756;SDS011;44527;47.460;19.016;2022-12-18T07:00:42;35.42;;;14.70;;
58756;SDS011;44527;47.460;19.016;2022-12-18T07:03:45;37.53;;;14.50;;
58756;SDS011;44527;47.460;19.016;2022-12-18T07:06:47;43.35;;;14.40;;
58756;SDS011;44527;47.460;19.016;2022-12-18T07:09:50;38.13;;;14.35;;
58756;SDS011;44527;47.460;19.016;2022-12-18T07:12:53;36.45;;;12.80;;
58756;SDS011;44527;47.460;19.016;2022-12-18T07:15:55;47.97;;;16.42;;
58756;SDS011;44527;47.460;19.016;2022-12-18T07:18:58;40.30;;;15.35;;
58756;SDS011;44527;47.460;19.016;2022-12-18T07:22:00;34.25;;;12.90;;
58756;SDS011;44527;47.460;19.016;2022-12-18T07:25:04;41.85;;;14.90;;
58756;SDS011;44527;47.460;19.016;2022-12-18T07:28:06;44.88;;;14.23;;
58756;SDS011;44527;47.460;19.016;2022-12-18T07:31:16;41.00;;;15.73;;
58756;SDS011;44527;47.460;19.016;2022-12-18T07:34:22;45.25;;;15.50;;
58756;SDS011;44527;47.460;19.016;2022-12-18T07:37:24;33.67;;;14.70;;
58756;SDS011;44527;47.460;19.016;2022-12-18T07:40:26;47.78;;;16.48;;
58756;SDS011;44527;47.460;19.016;2022-12-18T07:43:29;37.78;;;15.27;;
58756;SDS011;44527;47.460;19.016;2022-12-18T07:46:31;44.33;;;16.10;;
58756;SDS011;44527;47.460;19.016;2022-12-18T07:49:34;40.38;;;14.85;;
58756;SDS011;44527;47.460;19.016;2022-12-18T07:52:36;48.28;;;16.25;;
58756;SDS011;44527;47.460;19.016;2022-12-18T07:55:38;50.95;;;15.88;;
58756;SDS011;44527;47.460;19.016;2022-12-18T07:59:03;46.53;;;15.77;;
58756;SDS011;44527;47.460;19.016;2022-12-18T08:02:06;58.28;;;17.20;;
58756;SDS011;44527;47.460;19.016;2022-12-18T08:05:09;46.00;;;15.73;;
58756;SDS011;44527;47.460;19.016;2022-12-18T08:08:11;44.33;;;16.27;;
58756;SDS011;44527;47.460;19.016;2022-12-18T08:11:13;54.10;;;17.33;;
58756;SDS011;44527;47.460;19.016;2022-12-18T08:14:15;54.78;;;17.90;;
58756;SDS011;44527;47.460;19.016;2022-12-18T08:17:19;46.42;;;17.00;;
58756;SDS011;44527;47.460;19.016;2022-12-18T08:20:21;49.28;;;17.35;;
58756;SDS011;44527;47.460;19.016;2022-12-18T08:23:24;48.00;;;16.48;;
58756;SDS011;44527;47.460;19.016;2022-12-18T08:26:30;49.40;;;16.42;;
58756;SDS011;44527;47.460;19.016;2022-12-18T08:29:33;57.67;;;15.32;;
58756;SDS011;44527;47.460;19.016;2022-12-18T08:32:35;45.10;;;15.75;;
58756;SDS011;44527;47.460;19.016;2022-12-18T08:35:38;48.20;;;16.40;;
58756;SDS011;44527;47.460;19.016;2022-12-18T08:38:46;41.08;;;14.77;;
58756;SDS011;44527;47.460;19.016;2022-12-18T08:41:49;44.28;;;16.33;;
58756;SDS011;44527;47.460;19.016;2022-12-18T08:45:11;38.95;;;15.80;;
58756;SDS011;44527;47.460;19.016;2022-12-18T08:48:13;38.70;;;15.52;;
58756;SDS011;44527;47.460;19.016;2022-12-18T08:51:22;41.78;;;14.48;;
58756;SDS011;44527;47.460;19.016;2022-12-18T08:54:25;46.72;;;17.10;;
58756;SDS011;44527;47.460;19.016;2022-12-18T08:57:28;47.00;;;16.35;;
58756;SDS011;44527;47.460;19.016;2022-12-18T09:00:31;48.95;;;16.70;;
58756;SDS011;44527;47.460;19.016;2022-12-18T09:03:33;52.03;;;18.55;;
58756;SDS011;44527;47.460;19.016;2022-12-18T09:06:36;46.33;;;15.77;;
58756;SDS011;44527;47.460;19.016;2022-12-18T09:09:39;48.40;;;18.85;;
58756;SDS011;44527;47.460;19.016;2022-12-18T09:12:41;43.60;;;16.10;;
58756;SDS011;44527;47.460;19.016;2022-12-18T09:15:44;49.67;;;18.67;;
58756;SDS011;44527;47.460;19.016;2022-12-18T09:18:48;50.35;;;18.23;;
58756;SDS011;44527;47.460;19.016;2022-12-18T09:21:50;53.85;;;17.73;;
58756;SDS011;44527;47.460;19.016;2022-12-18T09:24:53;42.62;;;17.00;;
58756;SDS011;44527;47.460;19.016;2022-12-18T09:27:55;47.30;;;17.77;;
58756;SDS011;44527;47.460;19.016;2022-12-18T09:30:58;49.75;;;18.15;;
58756;SDS011;44527;47.460;19.016;2022-12-18T09:34:00;44.60;;;17.00;;
58756;SDS011;44527;47.460;19.016;2022-12-18T09:37:02;51.55;;;19.23;;
58756;SDS011;44527;47.460;19.016;2022-12-18T09:40:05;48.42;;;17.20;;
58756;SDS011;44527;47.460;19.016;2022-12-18T09:43:09;50.85;;;19.55;;
58756;SDS011;44527;47.460;19.016;2022-12-18T09:46:23;44.75;;;17.17;;
58756;SDS011;44527;47.460;19.016;2022-12-18T09:49:30;46.28;;;16.87;;
58756;SDS011;44527;47.460;19.016;2022-12-18T09:52:37;48.55;;;17.33;;
58756;SDS011;44527;47.460;19.016;2022-12-18T09:55:44;56.33;;;17.60;;
58756;SDS011;44527;47.460;19.016;2022-12-18T09:58:50;50.80;;;19.15;;
58756;SDS011;44527;47.460;19.016;2022-12-18T10:02:15;48.08;;;18.92;;
58756;SDS011;44527;47.460;19.016;2022-12-18T10:09:01;51.28;;;18.67;;
58756;SDS011;44527;47.460;19.016;2022-12-18T10:25:23;56.42;;;17.90;;
58756;SDS011;44527;47.460;19.016;2022-12-18T10:28:26;51.85;;;19.15;;
58756;SDS011;44527;47.460;19.016;2022-12-18T10:31:31;50.03;;;17.98;;
58756;SDS011;44527;47.460;19.016;2022-12-18T10:34:33;51.53;;;19.00;;
58756;SDS011;44527;47.460;19.016;2022-12-18T10:37:36;48.83;;;20.20;;
58756;SDS011;44527;47.460;19.016;2022-12-18T10:40:48;53.85;;;17.83;;
58756;SDS011;44527;47.460;19.016;2022-12-18T10:44:26;50.40;;;18.73;;
58756;SDS011;44527;47.460;19.016;2022-12-18T10:47:22;46.63;;;16.27;;
58756;SDS011;44527;47.460;19.016;2022-12-18T10:50:29;44.30;;;18.67;;
58756;SDS011;44527;47.460;19.016;2022-12-18T10:53:56;44.30;;;18.02;;
58756;SDS011;44527;47.460;19.016;2022-12-18T11:00:29;45.28;;;17.85;;
58756;SDS011;44527;47.460;19.016;2022-12-18T11:03:37;43.08;;;16.95;;
58756;SDS011;44527;47.460;19.016;2022-12-18T11:10:15;49.15;;;19.58;;
58756;SDS011;44527;47.460;19.016;2022-12-18T11:13:21;50.97;;;19.60;;
58756;SDS011;44527;47.460;19.016;2022-12-18T11:16:26;49.72;;;18.85;;
58756;SDS011;44527;47.460;19.016;2022-12-18T11:19:36;52.38;;;19.92;;
58756;SDS011;44527;47.460;19.016;2022-12-18T11:22:41;44.05;;;17.15;;
58756;SDS011;44527;47.460;19.016;2022-12-18T11:25:51;50.30;;;19.77;;
58756;SDS011;44527;47.460;19.016;2022-12-18T11:29:09;49.85;;;19.77;;
58756;SDS011;44527;47.460;19.016;2022-12-18T11:32:38;44.92;;;17.35;;
58756;SDS011;44527;47.460;19.016;2022-12-18T11:39:10;54.03;;;17.35;;
58756;SDS011;44527;47.460;19.016;2022-12-18T11:42:24;49.40;;;19.02;;
58756;SDS011;44527;47.460;19.016;2022-12-18T11:45:45;47.38;;;18.35;;
58756;SDS011;44527;47.460;19.016;2022-12-18T11:52:53;39.85;;;16.73;;
58756;SDS011;44527;47.460;19.016;2022-12-18T11:59:07;46.88;;;17.02;;
58756;SDS011;44527;47.460;19.016;2022-12-18T12:22:45;40.75;;;15.77;;
58756;SDS011;44527;47.460;19.016;2022-12-18T12:38:55;49.47;;;19.10;;
58756;SDS011;44527;47.460;19.016;2022-12-18T12:42:04;51.72;;;19.90;;
58756;SDS011;44527;47.460;19.016;2022-12-18T12:45:34;50.08;;;19.00;;
58756;SDS011;44527;47.460;19.016;2022-12-18T12:48:49;48.80;;;22.23;;
58756;SDS011;44527;47.460;19.016;2022-12-18T12:51:59;62.20;;;23.12;;
58756;SDS011;44527;47.460;19.016;2022-12-18T12:55:13;64.65;;;24.37;;
58756;SDS011;44527;47.460;19.016;2022-12-18T13:01:42;64.80;;;24.98;;
58756;SDS011;44527;47.460;19.016;2022-12-18T13:08:04;66.72;;;25.37;;
58756;SDS011;44527;47.460;19.016;2022-12-18T13:11:11;74.78;;;26.12;;
58756;SDS011;44527;47.460;19.016;2022-12-18T13:18:43;67.55;;;28.87;;
58756;SDS011;44527;47.460;19.016;2022-12-18T13:21:55;64.03;;;25.90;;
58756;SDS011;44527;47.460;19.016;2022-12-18T13:24:58;74.37;;;25.60;;
58756;SDS011;44527;47.460;19.016;2022-12-18T13:28:08;70.62;;;26.95;;
58756;SDS011;44527;47.460;19.016;2022-12-18T13:32:01;64.85;;;25.92;;
58756;SDS011;44527;47.460;19.016;2022-12-18T13:34:44;72.70;;;26.02;;
58756;SDS011;44527;47.460;19.016;2022-12-18T13:37:53;66.37;;;24.15;;
58756;SDS011;44527;47.460;19.016;2022-12-18T13:40:58;66.40;;;24.98;;
58756;SDS011;44527;47.460;19.016;2022-12-18T13:44:12;69.95;;;27.37;;
58756;SDS011;44527;47.460;19.016;2022-12-18T13:47:28;63.42;;;25.12;;
58756;SDS011;44527;47.460;19.016;2022-12-18T13:50:35;66.43;;;25.83;;
58756;SDS011;44527;47.460;19.016;2022-12-18T13:53:39;68.47;;;25.98;;
58756;SDS011;44527;47.460;19.016;2022-12-18T13:56:47;64.05;;;24.90;;
58756;SDS011;44527;47.460;19.016;2022-12-18T13:59:50;67.47;;;24.42;;
58756;SDS011;44527;47.460;19.016;2022-12-18T14:02:53;63.35;;;24.37;;
58756;SDS011;44527;47.460;19.016;2022-12-18T14:06:01;67.00;;;24.58;;
58756;SDS011;44527;47.460;19.016;2022-12-18T14:09:09;65.30;;;24.27;;
58756;SDS011;44527;47.460;19.016;2022-12-18T14:12:24;60.28;;;22.62;;
58756;SDS011;44527;47.460;19.016;2022-12-18T14:15:46;62.67;;;22.87;;
58756;SDS011;44527;47.460;19.016;2022-12-18T14:18:55;66.28;;;24.10;;
58756;SDS011;44527;47.460;19.016;2022-12-18T14:22:18;59.20;;;23.12;;
58756;SDS011;44527;47.460;19.016;2022-12-18T14:25:24;60.33;;;23.67;;
58756;SDS011;44527;47.460;19.016;2022-12-18T14:28:27;61.97;;;23.87;;
58756;SDS011;44527;47.460;19.016;2022-12-18T14:31:30;67.70;;;26.08;;
58756;SDS011;44527;47.460;19.016;2022-12-18T14:34:33;78.75;;;26.15;;
58756;SDS011;44527;47.460;19.016;2022-12-18T14:37:39;73.85;;;26.62;;
58756;SDS011;44527;47.460;19.016;2022-12-18T14:40:42;73.90;;;26.33;;
58756;SDS011;44527;47.460;19.016;2022-12-18T14:43:46;70.28;;;26.45;;
58756;SDS011;44527;47.460;19.016;2022-12-18T14:46:50;73.37;;;27.33;;
58756;SDS011;44527;47.460;19.016;2022-12-18T14:49:53;66.62;;;25.15;;
58756;SDS011;44527;47.460;19.016;2022-12-18T14:52:56;68.03;;;25.20;;
58756;SDS011;44527;47.460;19.016;2022-12-18T14:55:58;66.20;;;25.90;;
58756;SDS011;44527;47.460;19.016;2022-12-18T14:59:13;74.15;;;26.95;;
58756;SDS011;44527;47.460;19.016;2022-12-18T15:02:25;62.62;;;24.98;;
58756;SDS011;44527;47.460;19.016;2022-12-18T15:05:30;68.93;;;26.58;;
58756;SDS011;44527;47.460;19.016;2022-12-18T15:08:36;72.80;;;26.92;;
58756;SDS011;44527;47.460;19.016;2022-12-18T15:14:41;69.18;;;27.33;;
58756;SDS011;44527;47.460;19.016;2022-12-18T15:17:43;64.47;;;26.52;;
58756;SDS011;44527;47.460;19.016;2022-12-18T15:20:48;72.05;;;26.75;;
58756;SDS011;44527;47.460;19.016;2022-12-18T15:23:50;65.43;;;25.08;;
58756;SDS011;44527;47.460;19.016;2022-12-18T15:26:54;68.45;;;26.05;;
58756;SDS011;44527;47.460;19.016;2022-12-18T15:30:30;74.03;;;27.73;;
58756;SDS011;44527;47.460;19.016;2022-12-18T15:33:40;74.50;;;25.77;;
58756;SDS011;44527;47.460;19.016;2022-12-18T15:36:44;73.47;;;27.62;;
58756;SDS011;44527;47.460;19.016;2022-12-18T15:39:47;63.45;;;25.48;;
58756;SDS011;44527;47.460;19.016;2022-12-18T15:42:51;70.72;;;27.35;;
58756;SDS011;44527;47.460;19.016;2022-12-18T15:46:21;60.15;;;23.70;;
58756;SDS011;44527;47.460;19.016;2022-12-18T15:49:25;78.45;;;29.87;;
58756;SDS011;44527;47.460;19.016;2022-12-18T15:52:27;71.50;;;28.75;;
58756;SDS011;44527;47.460;19.016;2022-12-18T15:55:29;72.97;;;26.52;;
58756;SDS011;44527;47.460;19.016;2022-12-18T15:58:50;65.47;;;26.55;;
58756;SDS011;44527;47.460;19.016;2022-12-18T16:01:53;72.43;;;28.40;;
58756;SDS011;44527;47.460;19.016;2022-12-18T16:04:55;84.20;;;28.77;;
58756;SDS011;44527;47.460;19.016;2022-12-18T16:07:58;72.20;;;27.90;;
58756;SDS011;44527;47.460;19.016;2022-12-18T16:11:00;74.37;;;27.87;;
58756;SDS011;44527;47.460;19.016;2022-12-18T16:14:04;64.97;;;25.80;;
58756;SDS011;44527;47.460;19.016;2022-12-18T16:17:09;70.05;;;25.20;;
58756;SDS011;44527;47.460;19.016;2022-12-18T16:20:14;75.22;;;28.58;;
58756;SDS011;44527;47.460;19.016;2022-12-18T16:23:18;59.97;;;25.15;;
58756;SDS011;44527;47.460;19.016;2022-12-18T16:26:20;80.12;;;30.33;;
58756;SDS011;44527;47.460;19.016;2022-12-18T16:29:22;68.72;;;28.67;;
58756;SDS011;44527;47.460;19.016;2022-12-18T16:32:28;78.07;;;28.58;;
58756;SDS011;44527;47.460;19.016;2022-12-18T16:35:31;81.15;;;29.77;;
58756;SDS011;44527;47.460;19.016;2022-12-18T16:38:34;84.70;;;30.77;;
58756;SDS011;44527;47.460;19.016;2022-12-18T16:41:36;86.00;;;31.50;;
58756;SDS011;44527;47.460;19.016;2022-12-18T16:44:39;105.12;;;35.95;;
58756;SDS011;44527;47.460;19.016;2022-12-18T16:47:41;102.05;;;34.63;;
58756;SDS011;44527;47.460;19.016;2022-12-18T16:50:44;92.65;;;32.42;;
58756;SDS011;44527;47.460;19.016;2022-12-18T16:53:46;97.35;;;34.78;;
58756;SDS011;44527;47.460;19.016;2022-12-18T16:56:49;85.10;;;33.50;;
58756;SDS011;44527;47.460;19.016;2022-12-18T16:59:52;110.72;;;40.97;;
58756;SDS011;44527;47.460;19.016;2022-12-18T17:02:54;105.87;;;42.30;;
58756;SDS011;44527;47.460;19.016;2022-12-18T17:06:01;106.30;;;39.30;;
58756;SDS011;44527;47.460;19.016;2022-12-18T17:09:07;90.07;;;32.90;;
58756;SDS011;44527;47.460;19.016;2022-12-18T17:12:12;87.05;;;30.15;;
58756;SDS011;44527;47.460;19.016;2022-12-18T17:15:15;88.78;;;32.00;;
58756;SDS011;44527;47.460;19.016;2022-12-18T17:18:18;86.93;;;28.77;;
58756;SDS011;44527;47.460;19.016;2022-12-18T17:21:20;79.18;;;30.33;;
58756;SDS011;44527;47.460;19.016;2022-12-18T17:24:23;89.15;;;32.03;;
58756;SDS011;44527;47.460;19.016;2022-12-18T17:27:25;90.60;;;33.53;;
58756;SDS011;44527;47.460;19.016;2022-12-18T17:30:28;91.18;;;31.52;;
58756;SDS011;44527;47.460;19.016;2022-12-18T17:33:31;77.10;;;30.90;;
58756;SDS011;44527;47.460;19.016;2022-12-18T17:36:33;77.82;;;30.27;;
58756;SDS011;44527;47.460;19.016;2022-12-18T17:39:35;87.43;;;31.33;;
58756;SDS011;44527;47.460;19.016;2022-12-18T17:42:38;76.40;;;33.35;;
58756;SDS011;44527;47.460;19.016;2022-12-18T17:45:43;81.55;;;31.12;;
58756;SDS011;44527;47.460;19.016;2022-12-18T17:48:46;89.13;;;32.53;;
58756;SDS011;44527;47.460;19.016;2022-12-18T17:51:48;71.28;;;29.58;;
58756;SDS011;44527;47.460;19.016;2022-12-18T17:54:51;74.82;;;27.25;;
58756;SDS011;44527;47.460;19.016;2022-12-18T17:57:53;77.12;;;27.15;;
58756;SDS011;44527;47.460;19.016;2022-12-18T18:00:56;82.22;;;27.45;;
58756;SDS011;44527;47.460;19.016;2022-12-18T18:03:59;77.15;;;28.08;;
58756;SDS011;44527;47.460;19.016;2022-12-18T18:07:02;66.22;;;25.65;;
58756;SDS011;44527;47.460;19.016;2022-12-18T18:10:05;86.20;;;28.15;;
58756;SDS011;44527;47.460;19.016;2022-12-18T18:13:16;79.40;;;27.62;;
58756;SDS011;44527;47.460;19.016;2022-12-18T18:16:48;73.95;;;28.80;;
58756;SDS011;44527;47.460;19.016;2022-12-18T18:19:52;89.93;;;28.62;;
58756;SDS011;44527;47.460;19.016;2022-12-18T18:22:55;77.90;;;28.67;;
58756;SDS011;44527;47.460;19.016;2022-12-18T18:26:01;77.05;;;27.50;;
58756;SDS011;44527;47.460;19.016;2022-12-18T18:29:05;74.85;;;28.98;;
58756;SDS011;44527;47.460;19.016;2022-12-18T18:32:09;75.95;;;28.62;;
58756;SDS011;44527;47.460;19.016;2022-12-18T18:35:11;83.80;;;30.33;;
58756;SDS011;44527;47.460;19.016;2022-12-18T18:38:37;103.90;;;33.78;;
58756;SDS011;44527;47.460;19.016;2022-12-18T18:41:40;96.75;;;34.42;;
58756;SDS011;44527;47.460;19.016;2022-12-18T18:44:48;96.68;;;33.25;;
58756;SDS011;44527;47.460;19.016;2022-12-18T18:47:51;100.70;;;33.78;;
58756;SDS011;44527;47.460;19.016;2022-12-18T18:50:57;103.35;;;33.72;;
58756;SDS011;44527;47.460;19.016;2022-12-18T18:54:00;90.75;;;33.25;;
58756;SDS011;44527;47.460;19.016;2022-12-18T18:57:03;89.10;;;34.75;;
58756;SDS011;44527;47.460;19.016;2022-12-18T19:00:22;97.43;;;34.70;;
58756;SDS011;44527;47.460;19.016;2022-12-18T19:03:24;101.70;;;36.13;;
58756;SDS011;44527;47.460;19.016;2022-12-18T19:06:27;93.85;;;35.25;;
58756;SDS011;44527;47.460;19.016;2022-12-18T19:09:30;107.00;;;35.70;;
58756;SDS011;44527;47.460;19.016;2022-12-18T19:12:33;101.65;;;33.92;;
58756;SDS011;44527;47.460;19.016;2022-12-18T19:16:03;109.47;;;37.08;;
58756;SDS011;44527;47.460;19.016;2022-12-18T19:19:07;96.20;;;35.17;;
58756;SDS011;44527;47.460;19.016;2022-12-18T19:22:10;108.68;;;36.92;;
58756;SDS011;44527;47.460;19.016;2022-12-18T19:25:13;105.20;;;37.10;;
58756;SDS011;44527;47.460;19.016;2022-12-18T19:28:15;91.03;;;31.20;;
58756;SDS011;44527;47.460;19.016;2022-12-18T19:31:23;101.65;;;35.80;;
58756;SDS011;44527;47.460;19.016;2022-12-18T19:34:32;96.78;;;35.53;;
58756;SDS011;44527;47.460;19.016;2022-12-18T19:37:35;84.95;;;33.10;;
58756;SDS011;44527;47.460;19.016;2022-12-18T19:40:41;91.12;;;35.45;;